General Aviation Weather

Text Reports

Enter one or more of the following location identifiers separated by a space:

Zip Code, Four-Character ICAO or Three-Character IATA airport codes.

METAR - Aviation Routine Weather Report
KPVW - Plainview, Texas
Updated at 9:35 AM GMT on September 22, 2014 (4:35 AM CDT):
METAR KPVW 220935Z AUTO 07006KT 10SM OVC120 16/15 A3027 RMK AO2 T01620146
TAF - Terminal Area Forecast
KPVW - Plainview, Texas
Updated at 9:35 AM GMT on September 22, 2014 (4:35 AM CDT):
No TAF is currently available for this location.
Decoded:
No decoded TAF is available.
PIREP - Pilot Weather Report
KPVW - Plainview, Texas
Updated at 9:35 AM GMT on September 22, 2014 (4:35 AM CDT):
No PIREP is currently available for this location.
AIRMET - Airmens Meteorological Information
KPVW - Plainview, Texas
Updated at 9:35 AM GMT on September 22, 2014 (4:35 AM CDT):
No AIRMET is currently available for this location.
SIGMET - Significant Meteorological Information
KPVW - Plainview, Texas
Updated at 9:35 AM GMT on September 22, 2014 (4:35 AM CDT):
No SIGMET is currently available for this location.
NOTAM - Notice to Airmen
KPVW - Plainview, Texas
Updated at 9:35 AM GMT on September 22, 2014 (4:35 AM CDT):
No NOTAM is currently available for this location.
Forecast Area
KPVW - Plainview, Texas
Updated at 9:35 AM GMT on September 22, 2014 (4:35 AM CDT):
No NOTAM is currently available for this location.
Aviation Weather Maps